Time;durP1;ratioP1;P1;durP2;ratioP2;P2;SDS_P1;SDS_P2;PMS_P1;PMS_P2;Temp;Humidity;BMP_temperature;BMP_pressure;BME280_temperature;BME280_humidity;BME280_pressure;Samples;Min_cycle;Max_cycle;Signal;HPM_P1;HPM_P2
2022/11/03 00:02:08;;;;;;;0.08;0.08;;;;;;;9.71;76.27;99358.66;7351353;19;20007;-65
2022/11/03 00:04:33;;;;;;;0.03;0.03;;;;;;;9.84;76.10;99375.50;7355765;19;20014;-65
2022/11/03 00:06:59;;;;;;;0.03;0.03;;;;;;;9.79;76.37;99367.03;7355251;19;20012;-66
2022/11/03 00:09:25;;;;;;;0.00;0.00;;;;;;;9.79;76.10;99377.44;7357179;19;20095;-65
2022/11/03 00:11:51;;;;;;;0.10;0.10;;;;;;;9.78;75.97;99380.94;7355884;19;20010;-65
2022/11/03 00:14:17;;;;;;;0.03;0.03;;;;;;;9.77;76.13;99368.81;7356996;19;20595;-65
2022/11/03 00:16:43;;;;;;;0.10;0.10;;;;;;;9.70;76.43;99367.38;7350502;19;20466;-65
2022/11/03 00:19:09;;;;;;;0.00;0.00;;;;;;;9.75;76.24;99381.94;7353750;19;20017;-65
2022/11/03 00:21:36;;;;;;;0.00;0.00;;;;;;;9.73;76.40;99380.28;7352915;19;20014;-65
2022/11/03 00:24:02;;;;;;;0.10;0.10;;;;;;;9.70;76.38;99383.03;7348641;19;20034;-65
2022/11/03 00:26:29;;;;;;;0.00;0.00;;;;;;;9.70;76.40;99386.47;7351495;19;20014;-65
2022/11/03 00:28:59;;;;;;;0.00;0.00;;;;;;;9.71;76.19;99382.13;7349051;19;20886;-65
2022/11/03 00:31:27;;;;;;;0.00;0.00;;;;;;;9.69;76.52;99370.91;7354223;19;20010;-65
2022/11/03 00:33:54;;;;;;;0.00;0.00;;;;;;;9.67;76.71;99368.34;7352526;19;20010;-65
2022/11/03 00:36:27;;;;;;;0.00;0.00;;;;;;;9.59;76.33;99349.56;7355840;19;20532;-65
2022/11/03 00:38:53;;;;;;;0.00;0.00;;;;;;;9.64;76.08;99352.00;7358575;19;20035;-66
2022/11/03 00:41:20;;;;;;;0.00;0.00;;;;;;;9.64;76.32;99352.00;7354908;19;20050;-65
2022/11/03 00:43:46;;;;;;;0.00;0.00;;;;;;;9.62;76.51;99357.25;7359832;19;20093;-65
2022/11/03 00:46:12;;;;;;;0.00;0.00;;;;;;;9.58;76.12;99348.75;7351800;19;20153;-65
2022/11/03 00:48:37;;;;;;;0.00;0.00;;;;;;;9.38;76.10;99320.03;7355356;19;20078;-65
2022/11/03 00:51:17;;;;;;;0.08;0.08;;;;;;;9.60;75.79;99357.31;7359616;19;20034;-65
2022/11/03 00:53:51;;;;;;;0.00;0.00;;;;;;;9.59;75.90;99350.44;7359721;19;20348;-65
2022/11/03 00:56:32;;;;;;;0.10;0.10;;;;;;;9.57;75.64;99349.63;7360135;19;20014;-65
2022/11/03 00:58:59;;;;;;;0.00;0.00;;;;;;;9.54;76.29;99341.94;7362839;19;20013;-65
2022/11/03 01:01:30;;;;;;;0.00;0.00;;;;;;;9.54;75.68;99336.72;7361960;19;20046;-65
2022/11/03 01:06:49;;;;;;;0.03;0.03;;;;;;;9.47;76.15;99330.06;7360153;19;20029;-65
2022/11/03 01:09:37;;;;;;;0.00;0.00;;;;;;;9.48;76.11;99326.56;7363180;19;20010;-65
2022/11/03 01:12:02;;;;;;;;;;;;;;;9.48;75.29;99326.56;7360782;19;20830;-65
2022/11/03 01:14:34;;;;;;;0.00;0.00;;;;;;;9.47;75.70;99318.78;7362334;19;19934;-65
2022/11/03 01:17:00;;;;;;;0.00;0.00;;;;;;;9.42;75.44;99318.97;7360513;19;20462;-65
2022/11/03 01:19:25;;;;;;;0.08;0.08;;;;;;;9.29;75.47;99289.97;7363679;19;20021;-65
2022/11/03 01:21:53;;;;;;;0.00;0.00;;;;;;;9.32;75.52;99289.81;7359226;19;20011;-65
2022/11/03 01:24:19;;;;;;;0.00;0.00;;;;;;;9.35;75.78;99300.13;7360311;19;20015;-65
2022/11/03 01:26:45;;;;;;;0.00;0.00;;;;;;;9.33;75.78;99296.75;7360194;19;20931;-65
2022/11/03 01:29:10;;;;;;;0.00;0.00;;;;;;;9.31;75.99;99302.91;7360968;19;20025;-65
2022/11/03 01:31:36;;;;;;;0.10;0.10;;;;;;;9.29;75.74;99295.19;7361340;19;20027;-65
2022/11/03 01:34:01;;;;;;;0.00;0.00;;;;;;;9.29;75.76;99299.53;7360296;19;20012;-65
2022/11/03 01:36:27;;;;;;;0.10;0.10;;;;;;;9.22;75.52;99298.06;7360139;19;20020;-65
2022/11/03 01:38:54;;;;;;;0.00;0.00;;;;;;;9.26;76.05;99294.44;7357494;19;20007;-65
2022/11/03 01:41:21;;;;;;;;;;;;;;;9.27;75.73;99296.13;7361362;19;20017;-65
2022/11/03 01:44:03;;;;;;;0.00;0.00;;;;;;;9.21;75.77;99296.38;7360760;19;19918;-65
2022/11/03 01:46:28;;;;;;;0.00;0.00;;;;;;;9.11;75.35;99282.88;7361235;19;20105;-65
2022/11/03 01:49:05;;;;;;;0.00;0.00;;;;;;;9.21;75.71;99291.19;7362332;19;20098;-65
2022/11/03 01:51:32;;;;;;;0.00;0.00;;;;;;;9.06;75.55;99266.59;7359887;19;20015;-65
2022/11/03 01:54:02;;;;;;;0.10;0.10;;;;;;;9.10;75.68;99274.22;7360069;19;20007;-65
2022/11/03 01:56:31;;;;;;;0.00;0.00;;;;;;;9.16;75.74;99299.16;7360580;19;20026;-65
2022/11/03 01:58:57;;;;;;;0.00;0.00;;;;;;;9.14;75.71;99289.72;7362314;19;20031;-65
2022/11/03 02:01:23;;;;;;;0.00;0.00;;;;;;;9.10;75.90;99289.84;7362856;19;20117;-65
2022/11/03 02:03:55;;;;;;;0.10;0.10;;;;;;;9.12;75.91;99287.16;7365473;19;20010;-65
2022/11/03 02:06:24;;;;;;;0.00;0.00;;;;;;;9.01;75.71;99279.78;7366812;19;20006;-65
2022/11/03 02:08:55;;;;;;;0.00;0.00;;;;;;;9.06;75.89;99283.06;7364319;19;20411;-65
2022/11/03 02:14:10;;;;;;;0.00;0.00;;;;;;;9.05;76.16;99286.56;7366683;19;20027;-65
2022/11/03 02:16:36;;;;;;;0.00;0.00;;;;;;;9.01;76.20;99284.97;7363718;19;20017;-65
2022/11/03 02:19:04;;;;;;;0.10;0.10;;;;;;;9.01;76.07;99277.16;7365946;19;20011;-65
2022/11/03 02:22:07;;;;;;;0.00;0.00;;;;;;;9.01;75.38;99279.78;7363569;19;20070;-65
2022/11/03 02:25:04;;;;;;;0.10;0.10;;;;;;;9.00;75.47;99278.09;7262240;19;2004368;-65
2022/11/03 02:27:30;;;;;;;0.00;0.00;;;;;;;8.83;76.12;99257.09;7264130;19;2004329;-65
2022/11/03 02:29:57;;;;;;;0.03;0.03;;;;;;;8.94;76.04;99267.91;7363566;19;20018;-65
2022/11/03 02:32:27;;;;;;;0.10;0.10;;;;;;;8.93;76.24;99268.84;7365584;19;20110;-65
2022/11/03 02:35:18;;;;;;;0.00;0.00;;;;;;;8.91;75.75;99268.03;7364602;19;20136;-65
2022/11/03 02:37:48;;;;;;;0.00;0.00;;;;;;;8.83;75.91;99254.47;7262246;19;2004436;-65
2022/11/03 02:40:29;;;;;;;0.00;0.00;;;;;;;8.82;75.73;99255.41;7362181;19;20030;-65
2022/11/03 02:42:55;;;;;;;0.00;0.00;;;;;;;8.80;75.70;99251.97;7362331;19;20031;-65
2022/11/03 02:45:24;;;;;;;0.00;0.00;;;;;;;8.86;75.65;99259.53;7364079;19;20034;-65
2022/11/03 02:47:52;;;;;;;0.08;0.08;;;;;;;8.82;75.57;99258.00;7366822;19;20014;-65
2022/11/03 02:50:18;;;;;;;0.00;0.00;;;;;;;8.72;75.64;99246.25;7365275;19;20010;-65
2022/11/03 02:52:48;;;;;;;0.00;0.00;;;;;;;8.75;75.59;99243.50;7362568;19;20363;-65
2022/11/03 02:55:35;;;;;;;0.00;0.00;;;;;;;8.82;76.23;99263.19;7364643;19;20007;-64
2022/11/03 02:58:28;;;;;;;0.00;0.00;;;;;;;8.80;76.00;99262.38;7255554;19;2004309;-65
2022/11/03 03:01:14;;;;;;;0.10;0.10;;;;;;;8.77;76.56;99262.53;7263196;19;2005928;-65
2022/11/03 03:03:53;;;;;;;0.00;0.00;;;;;;;8.74;76.32;99260.03;7362582;19;20018;-65
2022/11/03 03:06:28;;;;;;;0.10;0.10;;;;;;;8.74;76.26;99254.81;7363253;19;20355;-65
2022/11/03 03:09:00;;;;;;;0.00;0.00;;;;;;;8.72;77.05;99261.84;7364579;19;20026;-65
2022/11/03 03:11:37;;;;;;;0.00;0.00;;;;;;;8.69;76.86;99251.56;7360605;19;20023;-65
2022/11/03 03:14:11;;;;;;;0.05;0.05;;;;;;;8.67;76.07;99254.22;7360400;19;20401;-65
2022/11/03 03:16:46;;;;;;;0.10;0.10;;;;;;;8.65;76.72;99252.56;7362406;19;20861;-64
2022/11/03 03:19:39;;;;;;;0.05;0.05;;;;;;;8.57;76.17;99240.72;7362303;19;20038;-65
2022/11/03 03:22:15;;;;;;;0.10;0.10;;;;;;;8.63;75.66;99247.44;7238631;19;2004397;-65
2022/11/03 03:24:53;;;;;;;0.10;0.10;;;;;;;8.57;75.78;99238.09;7359937;19;20014;-65
2022/11/03 03:27:22;;;;;;;0.00;0.00;;;;;;;8.60;75.73;99236.28;7360777;19;20018;-65
2022/11/03 03:29:53;;;;;;;0.00;0.00;;;;;;;8.60;75.59;99229.31;7361512;19;20019;-65
2022/11/03 03:32:22;;;;;;;0.00;0.00;;;;;;;8.59;75.60;99219.81;7359114;19;20098;-65
2022/11/03 03:34:50;;;;;;;0.05;0.05;;;;;;;8.60;75.86;99220.66;7364279;19;20078;-65
2022/11/03 03:37:16;;;;;;;;;;;;;;;8.63;75.54;99215.38;7361261;19;20010;-64
2022/11/03 03:39:47;;;;;;;0.10;0.10;;;;;;;8.61;75.63;99215.41;7362396;19;19915;-64
2022/11/03 03:42:14;;;;;;;0.00;0.00;;;;;;;8.61;75.46;99206.75;7361388;19;20048;-65
2022/11/03 03:44:41;;;;;;;0.00;0.00;;;;;;;8.57;75.71;99200.84;7361498;19;20018;-65
2022/11/03 03:47:11;;;;;;;;;;;;;;;8.62;75.48;99203.22;7361764;19;20002;-65
2022/11/03 03:49:37;;;;;;;0.00;0.00;;;;;;;8.58;75.39;99203.38;7360307;19;19919;-65
2022/11/03 03:52:02;;;;;;;0.10;0.10;;;;;;;8.57;75.69;99196.47;7363297;19;20026;-64
2022/11/03 03:54:28;;;;;;;0.00;0.00;;;;;;;8.57;75.26;99199.09;7361571;19;20017;-64
2022/11/03 03:57:00;;;;;;;0.00;0.00;;;;;;;8.56;75.21;99199.97;7363464;19;20007;-65
2022/11/03 03:59:26;;;;;;;0.00;0.00;;;;;;;8.55;75.85;99200.88;7360939;19;20010;-64
2022/11/03 04:01:51;;;;;;;0.08;0.08;;;;;;;8.55;75.60;99194.81;7363975;19;20025;-64
2022/11/03 04:04:17;;;;;;;0.00;0.00;;;;;;;8.54;75.45;99196.59;7361718;19;20096;-64
2022/11/03 04:06:42;;;;;;;0.00;0.00;;;;;;;8.54;75.18;99188.78;7361307;19;20010;-65
2022/11/03 04:09:08;;;;;;;0.10;0.10;;;;;;;8.53;75.50;99189.69;7365676;19;20003;-65
2022/11/03 04:22:32;;;;;;;0.00;0.00;;;;;;;8.46;75.64;99188.22;7363673;19;20034;-64
2022/11/03 04:24:58;;;;;;;;;;;;;;;8.53;75.04;99199.25;7364371;19;20010;-64
2022/11/03 04:27:30;;;;;;;0.00;0.00;;;;;;;8.51;75.03;99195.84;7363812;19;19930;-64
2022/11/03 04:30:01;;;;;;;0.00;0.00;;;;;;;8.47;75.86;99192.53;7364291;19;20854;-64
2022/11/03 04:32:28;;;;;;;0.10;0.10;;;;;;;8.46;75.78;99189.97;7365237;19;20010;-64
2022/11/03 04:34:53;;;;;;;0.10;0.10;;;;;;;8.35;75.36;99179.94;7363937;19;20539;-65
2022/11/03 04:37:19;;;;;;;0.00;0.00;;;;;;;8.40;75.93;99192.81;7366616;19;20024;-64
2022/11/03 04:39:44;;;;;;;0.00;0.00;;;;;;;8.38;76.49;99190.28;7362886;19;20054;-64
2022/11/03 04:42:21;;;;;;;0.10;0.10;;;;;;;8.39;76.66;99202.38;7364647;19;20030;-64
2022/11/03 04:44:47;;;;;;;0.10;0.10;;;;;;;8.33;76.78;99197.38;7365114;19;20022;-64
2022/11/03 04:47:15;;;;;;;0.10;0.10;;;;;;;8.34;77.23;99201.66;7362765;19;20027;-64
2022/11/03 04:49:41;;;;;;;;;;;;;;;8.34;75.99;99204.25;7366550;19;20006;-65
2022/11/03 04:52:17;;;;;;;0.00;0.00;;;;;;;8.30;76.68;99202.69;7363715;19;19999;-64
2022/11/03 04:54:43;;;;;;;0.00;0.00;;;;;;;8.28;77.05;99199.28;7364021;19;20006;-64
2022/11/03 04:57:14;;;;;;;0.00;0.00;;;;;;;8.26;76.81;99201.97;7364572;19;20041;-64
2022/11/03 04:59:42;;;;;;;0.05;0.05;;;;;;;8.23;76.61;99196.03;7360570;19;20030;-64
2022/11/03 05:02:14;;;;;;;;;;;;;;;8.27;75.90;99202.81;7364906;19;20007;-64
2022/11/03 05:04:41;;;;;;;0.00;0.00;;;;;;;8.23;76.66;99207.28;7363446;19;19983;-64
2022/11/03 05:07:31;;;;;;;0.00;0.00;;;;;;;8.25;76.18;99215.84;7363345;19;20010;-64
2022/11/03 05:09:57;;;;;;;0.00;0.00;;;;;;;8.16;76.75;99199.72;7261685;19;2004470;-64
2022/11/03 05:12:22;;;;;;;0.00;0.00;;;;;;;8.15;76.89;99203.25;7362915;19;20411;-64
2022/11/03 05:14:48;;;;;;;0.00;0.00;;;;;;;8.18;77.00;99211.78;7364523;19;20014;-64
2022/11/03 05:17:26;;;;;;;0.00;0.00;;;;;;;8.20;76.93;99209.13;7364042;19;20735;-64
2022/11/03 05:19:57;;;;;;;0.00;0.00;;;;;;;8.18;76.66;99197.94;7363749;19;20014;-64
2022/11/03 05:22:24;;;;;;;0.10;0.10;;;;;;;8.12;76.68;99190.38;7363164;19;20017;-65
2022/11/03 05:24:55;;;;;;;0.05;0.05;;;;;;;8.06;76.84;99188.84;7361001;19;20517;-64
2022/11/03 05:27:22;;;;;;;0.00;0.00;;;;;;;7.99;76.67;99172.63;7362242;19;20829;-64
2022/11/03 05:29:49;;;;;;;0.00;0.00;;;;;;;8.12;76.40;99185.19;7362818;19;20014;-65
2022/11/03 05:32:20;;;;;;;0.00;0.00;;;;;;;8.11;76.37;99188.66;7361717;19;20044;-64
2022/11/03 05:34:48;;;;;;;0.00;0.00;;;;;;;8.06;76.13;99184.50;7360175;19;20074;-64
2022/11/03 05:37:26;;;;;;;0.00;0.00;;;;;;;8.17;76.09;99204.06;7362508;19;20803;-64
2022/11/03 05:39:54;;;;;;;0.00;0.00;;;;;;;8.15;77.03;99203.25;7362023;19;20539;-64
2022/11/03 05:42:22;;;;;;;0.00;0.00;;;;;;;8.15;76.56;99198.88;7361618;19;20010;-64
2022/11/03 05:44:49;;;;;;;0.00;0.00;;;;;;;8.14;76.29;99201.56;7363584;19;20014;-64
2022/11/03 05:47:22;;;;;;;0.10;0.10;;;;;;;8.10;75.72;99189.56;7361889;19;20066;-64
2022/11/03 05:49:55;;;;;;;0.00;0.00;;;;;;;8.14;75.76;99191.16;7364331;19;20006;-64
2022/11/03 05:52:24;;;;;;;0.00;0.00;;;;;;;8.16;75.77;99194.53;7362255;19;20103;-64
2022/11/03 05:54:51;;;;;;;0.00;0.00;;;;;;;8.14;75.58;99197.19;7362960;19;20029;-64
2022/11/03 05:57:17;;;;;;;0.00;0.00;;;;;;;8.15;75.62;99198.88;7362408;19;20828;-64
2022/11/03 05:59:45;;;;;;;0.00;0.00;;;;;;;8.14;76.00;99192.00;7361737;19;20049;-64
2022/11/03 06:02:23;;;;;;;0.00;0.00;;;;;;;8.16;76.14;99189.34;7361489;19;20033;-64
2022/11/03 06:04:49;;;;;;;0.00;0.00;;;;;;;8.13;76.43;99185.09;7361219;19;20010;-64
2022/11/03 06:07:28;;;;;;;0.00;0.00;;;;;;;8.13;76.81;99187.72;7363497;19;20078;-64
2022/11/03 06:09:53;;;;;;;0.00;0.00;;;;;;;8.11;77.10;99186.06;7360700;19;20078;-64
2022/11/03 06:12:21;;;;;;;0.03;0.03;;;;;;;8.09;76.96;99180.06;7363618;19;22228;-64
2022/11/03 06:14:47;;;;;;;0.00;0.00;;;;;;;8.04;76.94;99170.69;7360280;19;20053;-64
2022/11/03 06:17:25;;;;;;;0.05;0.05;;;;;;;8.01;76.99;99159.56;7362544;19;20014;-64
2022/11/03 06:19:54;;;;;;;;;;;;;;;8.02;75.93;99172.50;7361232;19;20011;-64
2022/11/03 06:22:37;;;;;;;0.00;0.00;;;;;;;7.98;76.87;99163.13;7360139;19;19929;-64
2022/11/03 06:25:20;;;;;;;0.00;0.00;;;;;;;7.95;76.73;99150.22;7360433;19;20018;-65
2022/11/03 06:27:46;;;;;;;0.10;0.10;;;;;;;7.90;76.93;99146.94;7361266;19;20471;-64
2022/11/03 06:30:27;;;;;;;0.00;0.00;;;;;;;7.86;77.14;99144.56;7358490;19;22045;-64
2022/11/03 06:32:58;;;;;;;0.00;0.00;;;;;;;7.79;77.12;99133.50;7360258;19;20010;-64
2022/11/03 06:35:24;;;;;;;0.00;0.00;;;;;;;7.75;77.06;99135.38;7358005;19;20019;-64
2022/11/03 06:37:50;;;;;;;0.00;0.00;;;;;;;7.78;77.32;99142.22;7363431;19;20037;-64
2022/11/03 06:40:15;;;;;;;0.00;0.00;;;;;;;7.78;76.87;99147.41;7360050;19;20018;-64
2022/11/03 06:42:41;;;;;;;0.00;0.00;;;;;;;7.77;77.30;99143.97;7361336;19;20011;-64
2022/11/03 06:45:22;;;;;;;0.00;0.00;;;;;;;7.75;76.70;99131.91;7359886;19;20019;-64
2022/11/03 06:47:49;;;;;;;0.00;0.00;;;;;;;7.77;77.13;99148.31;7367564;19;20568;-64
2022/11/03 06:50:28;;;;;;;0.10;0.10;;;;;;;7.78;77.10;99147.41;7366502;19;20982;-64
2022/11/03 06:52:55;;;;;;;0.10;0.10;;;;;;;7.77;77.60;99145.72;7368338;19;20466;-64
2022/11/03 06:55:21;;;;;;;0.00;0.00;;;;;;;7.77;77.17;99140.53;7365930;19;20030;-64
2022/11/03 06:57:48;;;;;;;0.00;0.00;;;;;;;7.78;77.30;99150.00;7358569;19;20010;-64
2022/11/03 07:00:25;;;;;;;;;;;;;;;7.80;76.72;99145.59;7365957;19;20473;-64
2022/11/03 07:03:09;;;;;;;0.00;0.00;;;;;;;7.76;76.39;99138.84;7365672;19;19922;-64
2022/11/03 07:05:35;;;;;;;0.00;0.00;;;;;;;7.78;76.63;99150.00;7365270;19;20010;-64
2022/11/03 07:08:12;;;;;;;0.10;0.10;;;;;;;7.80;77.00;99145.59;7366180;19;20022;-64
2022/11/03 07:10:37;;;;;;;0.10;0.10;;;;;;;7.76;77.21;99141.44;7367760;19;20015;-64
2022/11/03 07:13:13;;;;;;;0.00;0.00;;;;;;;7.82;76.80;99138.59;7363277;19;20017;-65
2022/11/03 07:15:40;;;;;;;0.00;0.00;;;;;;;7.80;76.96;99145.59;7364978;19;20089;-64
2022/11/03 07:18:26;;;;;;;0.00;0.00;;;;;;;7.86;76.65;99141.94;7366236;19;20726;-64
2022/11/03 07:20:53;;;;;;;0.00;0.00;;;;;;;7.83;76.86;99129.06;7366176;19;20027;-64
2022/11/03 07:23:23;;;;;;;0.00;0.00;;;;;;;7.81;76.54;99121.31;7364218;19;20030;-64
2022/11/03 07:25:55;;;;;;;0.08;0.08;;;;;;;7.89;76.36;99126.22;7364229;19;20002;-64
2022/11/03 07:28:25;;;;;;;0.10;0.10;;;;;;;7.90;76.23;99125.31;7364578;19;20074;-64
2022/11/03 07:30:51;;;;;;;0.00;0.00;;;;;;;7.89;76.33;99113.22;7361347;19;20014;-64
2022/11/03 07:33:23;;;;;;;0.00;0.00;;;;;;;7.91;76.14;99117.47;7364253;19;20053;-64
2022/11/03 07:35:50;;;;;;;0.00;0.00;;;;;;;7.94;76.54;99117.34;7363825;19;20465;-64
2022/11/03 07:38:20;;;;;;;0.10;0.10;;;;;;;7.97;76.16;99114.66;7365632;19;20027;-64
2022/11/03 07:40:46;;;;;;;0.10;0.10;;;;;;;7.95;76.04;99111.25;7364684;19;20043;-64
2022/11/03 07:43:23;;;;;;;0.00;0.00;;;;;;;7.99;75.76;99114.59;7363729;19;20018;-64
2022/11/03 07:45:51;;;;;;;0.03;0.03;;;;;;;7.98;75.86;99112.91;7364610;19;20018;-64
2022/11/03 07:48:21;;;;;;;0.08;0.08;;;;;;;8.00;76.00;99117.13;7363519;19;20077;-64
2022/11/03 07:50:49;;;;;;;0.05;0.05;;;;;;;7.86;75.77;99088.22;7363228;19;20018;-64
2022/11/03 07:53:28;;;;;;;0.00;0.00;;;;;;;8.02;76.15;99112.72;7364806;19;20006;-64
2022/11/03 07:55:55;;;;;;;0.10;0.10;;;;;;;7.96;75.76;99099.97;7365743;19;20365;-64
2022/11/03 07:58:31;;;;;;;0.00;0.00;;;;;;;8.01;75.65;99113.63;7363306;19;20054;-64
2022/11/03 08:00:56;;;;;;;0.10;0.10;;;;;;;7.99;76.37;99112.81;7363778;19;20019;-64
2022/11/03 08:03:45;;;;;;;0.00;0.00;;;;;;;8.02;76.06;99107.53;7362593;19;20010;-64
2022/11/03 08:06:10;;;;;;;0.03;0.03;;;;;;;8.01;75.71;99118.00;7261532;19;2004449;-64
2022/11/03 08:08:36;;;;;;;0.00;0.00;;;;;;;8.01;76.38;99108.44;7365075;19;20396;-64
2022/11/03 08:11:01;;;;;;;0.00;0.00;;;;;;;8.03;76.56;99111.81;7362285;19;20006;-64
2022/11/03 08:13:26;;;;;;;0.03;0.03;;;;;;;8.11;76.22;99108.06;7361999;19;20038;-64
2022/11/03 08:15:52;;;;;;;0.00;0.00;;;;;;;8.13;76.53;99101.06;7358458;19;20017;-64
2022/11/03 08:18:17;;;;;;;0.00;0.00;;;;;;;8.27;76.76;99107.44;7360659;19;20021;-64
2022/11/03 08:20:43;;;;;;;0.00;0.00;;;;;;;8.37;75.96;99105.34;7360673;19;20078;-64
2022/11/03 08:23:10;;;;;;;0.00;0.00;;;;;;;8.43;76.05;99105.09;7355883;19;20018;-64
2022/11/03 08:25:35;;;;;;;0.00;0.00;;;;;;;8.53;75.80;99106.44;7355018;19;20018;-64
2022/11/03 08:28:02;;;;;;;0.00;0.00;;;;;;;8.60;75.90;99103.59;7360112;19;20050;-64
2022/11/03 08:30:28;;;;;;;0.00;0.00;;;;;;;8.65;75.67;99109.44;7359183;19;20018;-64
2022/11/03 08:32:53;;;;;;;0.00;0.00;;;;;;;8.69;75.38;99104.06;7359792;19;20367;-64
2022/11/03 08:35:19;;;;;;;0.00;0.00;;;;;;;8.71;75.07;99098.78;7358656;19;20007;-64
2022/11/03 08:37:44;;;;;;;0.00;0.00;;;;;;;8.77;75.23;99102.00;7358659;19;20002;-64
2022/11/03 08:40:10;;;;;;;0.10;0.10;;;;;;;8.79;75.66;99099.34;7356520;19;20840;-64
2022/11/03 08:42:35;;;;;;;0.03;0.03;;;;;;;8.83;75.10;99091.34;7357051;19;20017;-64
2022/11/03 08:45:01;;;;;;;0.00;0.00;;;;;;;8.93;75.53;99093.56;7359873;19;20019;-63
2022/11/03 08:47:26;;;;;;;0.10;0.10;;;;;;;9.01;75.54;99096.69;7359071;19;20026;-64
2022/11/03 08:49:51;;;;;;;0.00;0.00;;;;;;;9.16;75.84;99101.25;7359384;19;20730;-64
2022/11/03 08:52:17;;;;;;;0.00;0.00;;;;;;;9.28;75.19;99094.69;7350622;19;20013;-64
2022/11/03 08:54:42;;;;;;;0.00;0.00;;;;;;;9.39;74.77;99094.22;7359352;19;20020;-64
2022/11/03 08:57:07;;;;;;;0.00;0.00;;;;;;;9.54;74.92;99096.16;7361907;19;20014;-64
2022/11/03 08:59:33;;;;;;;0.00;0.00;;;;;;;9.66;74.88;99094.75;7355087;19;20010;-64
2022/11/03 09:01:58;;;;;;;0.00;0.00;;;;;;;9.85;74.88;99100.84;7357245;19;20010;-64
2022/11/03 09:04:24;;;;;;;0.00;0.00;;;;;;;9.95;74.51;99085.63;7358335;19;20039;-65
2022/11/03 09:06:49;;;;;;;0.00;0.00;;;;;;;10.26;74.99;99095.50;7355748;19;20010;-64
2022/11/03 09:09:15;;;;;;;0.00;0.00;;;;;;;10.49;73.89;99100.47;7357423;19;20006;-65
2022/11/03 09:11:40;;;;;;;0.00;0.00;;;;;;;10.71;73.32;99096.81;7360564;19;20018;-64
2022/11/03 09:14:06;;;;;;;0.00;0.00;;;;;;;10.81;72.54;99064.97;7362641;19;20003;-65
2022/11/03 09:16:31;;;;;;;0.00;0.00;;;;;;;11.05;72.29;99068.13;7352362;19;20006;-64
2022/11/03 09:18:56;;;;;;;0.00;0.00;;;;;;;11.40;71.88;99088.94;7363135;19;20385;-65
2022/11/03 09:21:22;;;;;;;0.00;0.00;;;;;;;11.50;71.30;99069.25;7358447;19;20085;-65
2022/11/03 09:23:47;;;;;;;0.05;0.05;;;;;;;11.95;71.37;99091.31;7348559;19;20014;-65
2022/11/03 09:26:13;;;;;;;0.00;0.00;;;;;;;12.17;70.84;99081.38;7343214;19;20034;-65
2022/11/03 09:28:38;;;;;;;0.05;0.05;;;;;;;12.39;70.24;99086.25;7349574;19;20014;-65
2022/11/03 09:31:04;;;;;;;0.00;0.00;;;;;;;12.64;70.20;99092.72;7350444;19;20013;-65
2022/11/03 09:33:29;;;;;;;0.00;0.00;;;;;;;12.86;69.34;99082.69;7348714;19;20078;-65
2022/11/03 09:35:54;;;;;;;0.10;0.10;;;;;;;13.05;69.14;99079.84;7348020;19;20010;-65
2022/11/03 09:38:20;;;;;;;0.10;0.10;;;;;;;13.26;68.11;99077.78;7345817;19;20010;-65
2022/11/03 09:40:45;;;;;;;0.00;0.00;;;;;;;13.44;67.78;99067.97;7348709;19;20796;-65
2022/11/03 09:43:11;;;;;;;0.03;0.03;;;;;;;13.69;67.92;99073.41;7349526;19;20019;-65
2022/11/03 09:45:37;;;;;;;0.00;0.00;;;;;;;13.90;66.59;99070.41;7349612;19;20029;-65
2022/11/03 09:48:03;;;;;;;0.00;0.00;;;;;;;14.08;66.61;99063.97;7345341;19;20025;-65
2022/11/03 09:50:30;;;;;;;0.00;0.00;;;;;;;14.30;66.35;99067.88;7349361;19;20011;-65
2022/11/03 09:52:56;;;;;;;0.08;0.08;;;;;;;14.50;66.06;99070.09;7347726;19;20050;-65
2022/11/03 09:55:26;;;;;;;0.10;0.10;;;;;;;14.68;66.17;99053.13;7349301;19;20888;-64
2022/11/03 09:57:55;;;;;;;0.05;0.05;;;;;;;14.96;65.47;99056.56;7348159;19;20470;-65
2022/11/03 10:00:22;;;;;;;0.03;0.03;;;;;;;15.13;64.74;99064.13;7348652;19;20668;-65
2022/11/03 10:02:49;;;;;;;0.00;0.00;;;;;;;15.32;63.99;99064.56;7346397;19;20002;-65
2022/11/03 10:05:26;;;;;;;0.05;0.05;;;;;;;15.59;65.68;99061.00;7349442;19;20027;-65
2022/11/03 10:07:57;;;;;;;0.00;0.00;;;;;;;15.79;64.20;99071.00;7347500;19;20009;-64
2022/11/03 10:10:24;;;;;;;0.00;0.00;;;;;;;15.94;63.67;99076.13;7349137;19;20429;-65
2022/11/03 10:12:52;;;;;;;0.00;0.00;;;;;;;16.12;62.04;99069.56;7348623;19;20641;-65
2022/11/03 10:15:19;;;;;;;0.10;0.10;;;;;;;16.30;62.25;99062.13;7348800;19;20018;-65
2022/11/03 10:17:45;;;;;;;0.10;0.10;;;;;;;16.46;62.12;99070.59;7347246;19;20006;-65
2022/11/03 10:20:13;;;;;;;0.10;0.10;;;;;;;16.66;61.60;99057.75;7352266;19;20888;-65
2022/11/03 10:22:41;;;;;;;0.08;0.08;;;;;;;16.82;61.75;99064.44;7354302;19;20092;-65
2022/11/03 10:25:33;;;;;;;0.10;0.10;;;;;;;16.98;63.81;99034.28;7353578;19;20040;-65
2022/11/03 10:28:21;;;;;;;0.10;0.10;;;;;;;17.34;63.47;99054.41;7353656;19;20011;-65
2022/11/03 10:30:56;;;;;;;0.10;0.10;;;;;;;17.40;61.60;99042.53;7354228;19;20014;-65
2022/11/03 10:33:29;;;;;;;0.00;0.00;;;;;;;17.59;61.08;99058.63;7353165;19;20038;-65
2022/11/03 10:35:56;;;;;;;0.00;0.00;;;;;;;17.74;60.45;99056.59;7354578;19;20773;-64
2022/11/03 10:38:32;;;;;;;0.08;0.08;;;;;;;18.01;60.96;99051.78;7351673;19;20014;-65
2022/11/03 10:41:15;;;;;;;0.10;0.10;;;;;;;18.27;62.93;99049.69;7351806;19;20117;-64
2022/11/03 10:44:06;;;;;;;0.10;0.10;;;;;;;18.51;63.53;99051.31;7354509;19;20017;-65
2022/11/03 10:46:31;;;;;;;0.10;0.10;;;;;;;18.56;56.86;99055.25;7252854;19;2004537;-65
2022/11/03 10:49:04;;;;;;;0.10;0.10;;;;;;;18.80;58.39;99052.41;7353742;19;20027;-64
2022/11/03 10:51:31;;;;;;;0.10;0.10;;;;;;;18.81;57.01;99055.91;7350091;19;20845;-64
2022/11/03 10:53:57;;;;;;;0.10;0.10;;;;;;;18.89;57.50;99050.81;7351894;19;20878;-65
2022/11/03 10:56:22;;;;;;;0.10;0.10;;;;;;;18.89;56.07;99030.47;7347543;19;20042;-64
2022/11/03 10:58:48;;;;;;;0.03;0.03;;;;;;;19.12;57.21;99040.94;7346771;19;20021;-65
2022/11/03 11:01:13;;;;;;;0.00;0.00;;;;;;;19.26;56.13;99037.13;7344964;19;20078;-65
2022/11/03 11:03:41;;;;;;;0.10;0.10;;;;;;;19.45;55.20;99030.13;7351633;19;20867;-65
2022/11/03 11:06:23;;;;;;;0.00;0.00;;;;;;;19.64;60.67;99036.50;7349906;19;20014;-65
2022/11/03 11:08:52;;;;;;;0.10;0.10;;;;;;;19.69;56.72;99031.66;7352483;19;20343;-65
2022/11/03 11:11:20;;;;;;;0.10;0.10;;;;;;;19.80;56.58;99034.19;7350621;19;20014;-65
2022/11/03 11:14:22;;;;;;;0.10;0.10;;;;;;;20.07;59.57;99038.03;7351342;19;20033;-65
2022/11/03 11:16:52;;;;;;;0.10;0.10;;;;;;;20.26;56.32;99034.59;7246762;19;2004286;-65
2022/11/03 11:19:19;;;;;;;0.10;0.10;;;;;;;20.34;57.04;99029.47;7348864;19;20107;-65
2022/11/03 11:21:46;;;;;;;0.10;0.10;;;;;;;20.56;53.66;99028.38;7350784;19;20612;-65
2022/11/03 11:24:12;;;;;;;0.10;0.10;;;;;;;20.70;52.07;99020.00;7348644;19;20039;-64
2022/11/03 11:26:39;;;;;;;0.08;0.08;;;;;;;20.80;53.52;99017.34;7349122;19;20758;-65
2022/11/03 11:29:07;;;;;;;0.00;0.00;;;;;;;20.99;56.46;99010.22;7350090;19;20861;-65
2022/11/03 11:31:34;;;;;;;0.10;0.10;;;;;;;21.07;56.56;98995.38;7346256;19;20648;-65
2022/11/03 11:34:08;;;;;;;0.10;0.10;;;;;;;21.37;58.73;98997.84;7350169;19;20007;-65
2022/11/03 11:36:41;;;;;;;0.10;0.10;;;;;;;21.54;52.35;98995.38;7349443;19;20007;-65
2022/11/03 11:39:19;;;;;;;0.10;0.10;;;;;;;21.88;54.14;98996.47;7351713;19;20010;-65
2022/11/03 11:42:08;;;;;;;0.10;0.10;;;;;;;22.21;56.16;98996.91;7346919;19;20006;-65
2022/11/03 11:44:46;;;;;;;0.03;0.03;;;;;;;22.30;53.88;99001.28;7348479;19;20018;-65
2022/11/03 11:47:33;;;;;;;0.00;0.00;;;;;;;22.38;54.52;99004.03;7347542;19;20010;-65
2022/11/03 11:50:04;;;;;;;;;;;;;;;22.50;58.52;98997.47;7351235;19;20013;-64
2022/11/03 11:52:30;;;;;;;0.00;0.00;;;;;;;22.37;51.06;98994.38;7347968;19;19922;-64
2022/11/03 11:54:56;;;;;;;0.00;0.00;;;;;;;22.36;50.44;98995.38;7348941;19;22010;-64
2022/11/03 11:57:23;;;;;;;0.10;0.10;;;;;;;22.29;51.77;98991.63;7348718;19;20044;-64
2022/11/03 11:59:49;;;;;;;0.10;0.10;;;;;;;22.30;53.21;98998.63;7348287;19;20014;-65
2022/11/03 12:02:22;;;;;;;0.10;0.10;;;;;;;22.36;52.40;99005.19;7347652;19;20380;-64
2022/11/03 12:04:53;;;;;;;0.10;0.10;;;;;;;22.30;52.31;99006.59;7348231;19;20028;-64
2022/11/03 12:07:34;;;;;;;0.00;0.00;;;;;;;22.29;52.94;98999.63;7347888;19;20388;-64
2022/11/03 12:10:30;;;;;;;0.00;0.00;;;;;;;22.19;53.87;98993.53;7347682;19;20015;-64
2022/11/03 12:12:58;;;;;;;0.00;0.00;;;;;;;21.94;54.80;98990.56;7244932;19;2004603;-65